sensor_id;sensor_type;location;lat;lon;timestamp;temperature;humidity
70421;SHT31;57848;51.938;15.520;2023-09-18T00:00:16;19.58;74.91
70421;SHT31;57848;51.938;15.520;2023-09-18T00:02:42;19.54;74.95
70421;SHT31;57848;51.938;15.520;2023-09-18T00:05:08;19.53;75.11
70421;SHT31;57848;51.938;15.520;2023-09-18T00:07:33;19.50;75.32
70421;SHT31;57848;51.938;15.520;2023-09-18T00:09:58;19.47;75.33
70421;SHT31;57848;51.938;15.520;2023-09-18T00:12:24;19.44;75.41
70421;SHT31;57848;51.938;15.520;2023-09-18T00:14:50;19.43;75.58
70421;SHT31;57848;51.938;15.520;2023-09-18T00:17:15;19.44;75.49
70421;SHT31;57848;51.938;15.520;2023-09-18T00:19:42;19.37;75.59
70421;SHT31;57848;51.938;15.520;2023-09-18T00:22:07;19.38;75.66
70421;SHT31;57848;51.938;15.520;2023-09-18T00:24:33;19.37;75.68
70421;SHT31;57848;51.938;15.520;2023-09-18T00:26:59;19.36;75.71
70421;SHT31;57848;51.938;15.520;2023-09-18T00:29:24;19.28;75.93
70421;SHT31;57848;51.938;15.520;2023-09-18T00:31:50;19.28;75.99
70421;SHT31;57848;51.938;15.520;2023-09-18T00:34:15;19.24;76.08
70421;SHT31;57848;51.938;15.520;2023-09-18T00:36:40;19.26;76.15
70421;SHT31;57848;51.938;15.520;2023-09-18T00:39:06;19.22;76.33
70421;SHT31;57848;51.938;15.520;2023-09-18T00:41:32;19.19;76.49
70421;SHT31;57848;51.938;15.520;2023-09-18T00:43:57;19.13;76.67
70421;SHT31;57848;51.938;15.520;2023-09-18T00:46:23;19.13;76.79
70421;SHT31;57848;51.938;15.520;2023-09-18T00:48:49;19.06;76.91
70421;SHT31;57848;51.938;15.520;2023-09-18T00:51:16;19.02;77.06
70421;SHT31;57848;51.938;15.520;2023-09-18T00:53:46;19.00;77.19
70421;SHT31;57848;51.938;15.520;2023-09-18T00:56:15;18.98;77.25
70421;SHT31;57848;51.938;15.520;2023-09-18T00:58:41;18.94;77.30
70421;SHT31;57848;51.938;15.520;2023-09-18T01:01:07;18.91;77.53
70421;SHT31;57848;51.938;15.520;2023-09-18T01:03:34;18.89;77.59
70421;SHT31;57848;51.938;15.520;2023-09-18T01:06:00;18.86;77.79
70421;SHT31;57848;51.938;15.520;2023-09-18T01:08:25;18.81;77.98
70421;SHT31;57848;51.938;15.520;2023-09-18T01:11:05;18.78;78.15
70421;SHT31;57848;51.938;15.520;2023-09-18T01:13:41;18.72;78.20
70421;SHT31;57848;51.938;15.520;2023-09-18T01:16:20;18.69;78.51
70421;SHT31;57848;51.938;15.520;2023-09-18T01:18:52;18.64;78.76
70421;SHT31;57848;51.938;15.520;2023-09-18T01:21:20;18.59;78.92
70421;SHT31;57848;51.938;15.520;2023-09-18T01:23:46;18.59;78.93
70421;SHT31;57848;51.938;15.520;2023-09-18T01:26:11;18.59;78.95
70421;SHT31;57848;51.938;15.520;2023-09-18T01:28:39;18.57;79.24
70421;SHT31;57848;51.938;15.520;2023-09-18T01:31:04;18.57;79.30
70421;SHT31;57848;51.938;15.520;2023-09-18T01:33:30;18.54;79.31
70421;SHT31;57848;51.938;15.520;2023-09-18T01:35:57;18.55;79.40
70421;SHT31;57848;51.938;15.520;2023-09-18T01:38:25;18.52;79.60
70421;SHT31;57848;51.938;15.520;2023-09-18T01:40:52;18.55;79.49
70421;SHT31;57848;51.938;15.520;2023-09-18T01:43:18;18.54;79.53
70421;SHT31;57848;51.938;15.520;2023-09-18T01:45:44;18.52;79.49
70421;SHT31;57848;51.938;15.520;2023-09-18T01:48:10;18.49;79.63
70421;SHT31;57848;51.938;15.520;2023-09-18T01:50:36;18.44;79.92
70421;SHT31;57848;51.938;15.520;2023-09-18T01:53:02;18.38;79.99
70421;SHT31;57848;51.938;15.520;2023-09-18T01:55:27;18.35;80.20
70421;SHT31;57848;51.938;15.520;2023-09-18T01:57:55;18.33;80.30
70421;SHT31;57848;51.938;15.520;2023-09-18T02:00:20;18.24;80.51
70421;SHT31;57848;51.938;15.520;2023-09-18T02:02:46;18.18;80.79
70421;SHT31;57848;51.938;15.520;2023-09-18T02:05:11;18.16;80.93
70421;SHT31;57848;51.938;15.520;2023-09-18T02:07:37;18.11;80.95
70421;SHT31;57848;51.938;15.520;2023-09-18T02:10:02;18.06;81.21
70421;SHT31;57848;51.938;15.520;2023-09-18T02:12:28;18.04;81.30
70421;SHT31;57848;51.938;15.520;2023-09-18T02:14:53;18.06;81.21
70421;SHT31;57848;51.938;15.520;2023-09-18T02:17:19;18.04;81.37
70421;SHT31;57848;51.938;15.520;2023-09-18T02:19:45;18.03;81.33
70421;SHT31;57848;51.938;15.520;2023-09-18T02:22:11;18.01;81.39
70421;SHT31;57848;51.938;15.520;2023-09-18T02:24:36;18.00;81.40
70421;SHT31;57848;51.938;15.520;2023-09-18T02:27:05;18.03;81.27
70421;SHT31;57848;51.938;15.520;2023-09-18T02:29:30;18.01;81.30
70421;SHT31;57848;51.938;15.520;2023-09-18T02:31:56;18.03;81.28
70421;SHT31;57848;51.938;15.520;2023-09-18T02:34:21;18.07;81.17
70421;SHT31;57848;51.938;15.520;2023-09-18T02:36:46;18.03;81.38
70421;SHT31;57848;51.938;15.520;2023-09-18T02:39:12;18.00;81.39
70421;SHT31;57848;51.938;15.520;2023-09-18T02:41:38;18.04;81.23
70421;SHT31;57848;51.938;15.520;2023-09-18T02:44:03;18.06;81.06
70421;SHT31;57848;51.938;15.520;2023-09-18T02:46:29;18.07;81.06
70421;SHT31;57848;51.938;15.520;2023-09-18T02:48:55;18.04;81.14
70421;SHT31;57848;51.938;15.520;2023-09-18T02:51:20;18.04;81.06
70421;SHT31;57848;51.938;15.520;2023-09-18T02:53:46;18.03;81.07
70421;SHT31;57848;51.938;15.520;2023-09-18T02:56:12;17.97;81.19
70421;SHT31;57848;51.938;15.520;2023-09-18T02:58:37;17.96;81.23
70421;SHT31;57848;51.938;15.520;2023-09-18T03:01:02;17.94;81.27
70421;SHT31;57848;51.938;15.520;2023-09-18T03:03:31;17.97;81.28
70421;SHT31;57848;51.938;15.520;2023-09-18T03:06:00;17.90;81.49
70421;SHT31;57848;51.938;15.520;2023-09-18T03:08:27;17.87;81.60
70421;SHT31;57848;51.938;15.520;2023-09-18T03:10:54;17.82;81.85
70421;SHT31;57848;51.938;15.520;2023-09-18T03:13:21;17.83;81.91
70421;SHT31;57848;51.938;15.520;2023-09-18T03:15:46;17.80;82.07
70421;SHT31;57848;51.938;15.520;2023-09-18T03:18:12;17.77;82.12
70421;SHT31;57848;51.938;15.520;2023-09-18T03:20:40;17.69;82.49
70421;SHT31;57848;51.938;15.520;2023-09-18T03:23:06;17.67;82.63
70421;SHT31;57848;51.938;15.520;2023-09-18T03:25:31;17.63;82.82
70421;SHT31;57848;51.938;15.520;2023-09-18T03:27:57;17.61;82.94
70421;SHT31;57848;51.938;15.520;2023-09-18T03:30:28;17.56;83.01
70421;SHT31;57848;51.938;15.520;2023-09-18T03:32:53;17.53;82.99
70421;SHT31;57848;51.938;15.520;2023-09-18T03:35:20;17.49;83.15
70421;SHT31;57848;51.938;15.520;2023-09-18T03:37:53;17.48;83.26
70421;SHT31;57848;51.938;15.520;2023-09-18T03:40:21;17.43;83.41
70421;SHT31;57848;51.938;15.520;2023-09-18T03:42:47;17.42;83.38
70421;SHT31;57848;51.938;15.520;2023-09-18T03:45:14;17.38;83.62
70421;SHT31;57848;51.938;15.520;2023-09-18T03:47:41;17.39;83.65
70421;SHT31;57848;51.938;15.520;2023-09-18T03:50:10;17.36;83.68
70421;SHT31;57848;51.938;15.520;2023-09-18T03:52:36;17.36;83.71
70421;SHT31;57848;51.938;15.520;2023-09-18T03:55:02;17.25;84.17
70421;SHT31;57848;51.938;15.520;2023-09-18T03:57:28;17.19;84.37
70421;SHT31;57848;51.938;15.520;2023-09-18T03:59:53;17.18;84.52
70421;SHT31;57848;51.938;15.520;2023-09-18T04:02:18;17.11;84.83
70421;SHT31;57848;51.938;15.520;2023-09-18T04:04:44;17.10;84.98
70421;SHT31;57848;51.938;15.520;2023-09-18T04:07:09;17.08;85.07
70421;SHT31;57848;51.938;15.520;2023-09-18T04:09:35;17.07;85.13
70421;SHT31;57848;51.938;15.520;2023-09-18T04:12:02;17.03;85.34
70421;SHT31;57848;51.938;15.520;2023-09-18T04:14:28;16.95;85.69
70421;SHT31;57848;51.938;15.520;2023-09-18T04:16:53;16.95;85.80
70421;SHT31;57848;51.938;15.520;2023-09-18T04:19:18;16.88;86.15
70421;SHT31;57848;51.938;15.520;2023-09-18T04:21:44;16.81;86.29
70421;SHT31;57848;51.938;15.520;2023-09-18T04:24:09;16.80;86.40
70421;SHT31;57848;51.938;15.520;2023-09-18T04:26:34;16.73;86.54
70421;SHT31;57848;51.938;15.520;2023-09-18T04:29:00;16.67;86.88
70421;SHT31;57848;51.938;15.520;2023-09-18T04:31:27;16.61;87.13
70421;SHT31;57848;51.938;15.520;2023-09-18T04:33:54;16.63;87.08
70421;SHT31;57848;51.938;15.520;2023-09-18T04:36:19;16.56;87.36
70421;SHT31;57848;51.938;15.520;2023-09-18T04:38:44;16.53;87.50
70421;SHT31;57848;51.938;15.520;2023-09-18T04:41:10;16.57;87.47
70421;SHT31;57848;51.938;15.520;2023-09-18T04:43:37;16.45;87.95
70421;SHT31;57848;51.938;15.520;2023-09-18T04:46:04;16.40;88.18
70421;SHT31;57848;51.938;15.520;2023-09-18T04:48:31;16.36;88.32
70421;SHT31;57848;51.938;15.520;2023-09-18T04:50:57;16.40;88.33
70421;SHT31;57848;51.938;15.520;2023-09-18T04:53:24;16.45;88.24
70421;SHT31;57848;51.938;15.520;2023-09-18T04:55:49;16.42;88.25
70421;SHT31;57848;51.938;15.520;2023-09-18T04:58:16;16.36;88.47
70421;SHT31;57848;51.938;15.520;2023-09-18T05:00:41;16.36;88.51
70421;SHT31;57848;51.938;15.520;2023-09-18T05:03:07;16.33;88.65
70421;SHT31;57848;51.938;15.520;2023-09-18T05:05:36;16.33;88.80
70421;SHT31;57848;51.938;15.520;2023-09-18T05:08:03;16.33;88.91
70421;SHT31;57848;51.938;15.520;2023-09-18T05:10:30;16.33;88.80
70421;SHT31;57848;51.938;15.520;2023-09-18T05:12:56;16.39;88.87
70421;SHT31;57848;51.938;15.520;2023-09-18T05:15:26;16.36;88.95
70421;SHT31;57848;51.938;15.520;2023-09-18T05:17:54;16.38;89.00
70421;SHT31;57848;51.938;15.520;2023-09-18T05:20:23;16.39;88.98
70421;SHT31;57848;51.938;15.520;2023-09-18T05:22:50;16.45;88.92
70421;SHT31;57848;51.938;15.520;2023-09-18T05:25:19;16.47;88.89
70421;SHT31;57848;51.938;15.520;2023-09-18T05:27:47;16.56;88.58
70421;SHT31;57848;51.938;15.520;2023-09-18T05:30:14;16.57;88.62
70421;SHT31;57848;51.938;15.520;2023-09-18T05:32:42;16.61;88.45
70421;SHT31;57848;51.938;15.520;2023-09-18T05:35:08;16.66;88.39
70421;SHT31;57848;51.938;15.520;2023-09-18T05:37:36;16.64;88.42
70421;SHT31;57848;51.938;15.520;2023-09-18T05:40:07;16.77;88.23
70421;SHT31;57848;51.938;15.520;2023-09-18T05:42:35;16.84;88.13
70421;SHT31;57848;51.938;15.520;2023-09-18T05:45:01;16.88;87.95
70421;SHT31;57848;51.938;15.520;2023-09-18T05:47:26;16.92;87.75
70421;SHT31;57848;51.938;15.520;2023-09-18T05:49:52;17.01;87.51
70421;SHT31;57848;51.938;15.520;2023-09-18T05:52:17;17.06;87.53
70421;SHT31;57848;51.938;15.520;2023-09-18T05:54:42;17.08;87.45
70421;SHT31;57848;51.938;15.520;2023-09-18T05:57:08;17.15;87.26
70421;SHT31;57848;51.938;15.520;2023-09-18T05:59:33;17.22;87.03
70421;SHT31;57848;51.938;15.520;2023-09-18T06:01:58;17.22;87.06
70421;SHT31;57848;51.938;15.520;2023-09-18T06:04:24;17.35;86.84
70421;SHT31;57848;51.938;15.520;2023-09-18T06:06:50;17.35;86.70
70421;SHT31;57848;51.938;15.520;2023-09-18T06:09:16;17.46;86.40
70421;SHT31;57848;51.938;15.520;2023-09-18T06:11:41;17.46;86.40
70421;SHT31;57848;51.938;15.520;2023-09-18T06:14:07;17.55;86.19
70421;SHT31;57848;51.938;15.520;2023-09-18T06:16:32;17.63;86.03
70421;SHT31;57848;51.938;15.520;2023-09-18T06:18:58;17.63;86.07
70421;SHT31;57848;51.938;15.520;2023-09-18T06:21:25;17.72;85.94
70421;SHT31;57848;51.938;15.520;2023-09-18T06:23:51;17.80;85.69
70421;SHT31;57848;51.938;15.520;2023-09-18T06:26:17;17.85;85.58
70421;SHT31;57848;51.938;15.520;2023-09-18T06:28:42;17.97;85.27
70421;SHT31;57848;51.938;15.520;2023-09-18T06:31:08;17.98;85.12
70421;SHT31;57848;51.938;15.520;2023-09-18T06:33:33;18.04;85.29
70421;SHT31;57848;51.938;15.520;2023-09-18T06:35:59;18.08;85.13
70421;SHT31;57848;51.938;15.520;2023-09-18T06:38:24;18.20;84.85
70421;SHT31;57848;51.938;15.520;2023-09-18T06:40:49;18.16;84.63
70421;SHT31;57848;51.938;15.520;2023-09-18T06:43:15;18.11;84.66
70421;SHT31;57848;51.938;15.520;2023-09-18T06:45:40;18.14;84.78
70421;SHT31;57848;51.938;15.520;2023-09-18T06:48:06;18.14;84.81
70421;SHT31;57848;51.938;15.520;2023-09-18T06:50:31;18.21;84.90
70421;SHT31;57848;51.938;15.520;2023-09-18T06:52:56;18.31;84.65
70421;SHT31;57848;51.938;15.520;2023-09-18T06:55:22;18.47;84.39
70421;SHT31;57848;51.938;15.520;2023-09-18T06:57:47;18.54;84.29
70421;SHT31;57848;51.938;15.520;2023-09-18T07:00:14;18.61;83.86
70421;SHT31;57848;51.938;15.520;2023-09-18T07:02:40;18.57;83.88
70421;SHT31;57848;51.938;15.520;2023-09-18T07:05:06;18.62;83.55
70421;SHT31;57848;51.938;15.520;2023-09-18T07:07:31;18.69;83.77
70421;SHT31;57848;51.938;15.520;2023-09-18T07:09:57;18.71;83.58
70421;SHT31;57848;51.938;15.520;2023-09-18T07:12:22;18.81;83.68
70421;SHT31;57848;51.938;15.520;2023-09-18T07:14:48;18.84;83.41
70421;SHT31;57848;51.938;15.520;2023-09-18T07:17:13;18.95;82.93
70421;SHT31;57848;51.938;15.520;2023-09-18T07:19:39;19.05;82.87
70421;SHT31;57848;51.938;15.520;2023-09-18T07:22:04;19.13;82.52
70421;SHT31;57848;51.938;15.520;2023-09-18T07:24:30;19.16;82.59
70421;SHT31;57848;51.938;15.520;2023-09-18T07:26:55;19.28;82.04
70421;SHT31;57848;51.938;15.520;2023-09-18T07:29:22;19.34;81.97
70421;SHT31;57848;51.938;15.520;2023-09-18T07:31:50;19.41;81.93
70421;SHT31;57848;51.938;15.520;2023-09-18T07:34:16;19.51;81.50
70421;SHT31;57848;51.938;15.520;2023-09-18T07:36:42;19.58;81.30
70421;SHT31;57848;51.938;15.520;2023-09-18T07:39:09;19.63;80.68
70421;SHT31;57848;51.938;15.520;2023-09-18T07:41:34;19.67;80.63
70421;SHT31;57848;51.938;15.520;2023-09-18T07:43:59;19.73;80.60
70421;SHT31;57848;51.938;15.520;2023-09-18T07:46:25;19.86;80.29
70421;SHT31;57848;51.938;15.520;2023-09-18T07:48:51;19.95;80.30
70421;SHT31;57848;51.938;15.520;2023-09-18T07:51:16;20.06;79.92
70421;SHT31;57848;51.938;15.520;2023-09-18T07:53:42;20.12;79.71
70421;SHT31;57848;51.938;15.520;2023-09-18T07:56:08;20.30;78.50
70421;SHT31;57848;51.938;15.520;2023-09-18T07:58:33;20.36;78.10
70421;SHT31;57848;51.938;15.520;2023-09-18T08:00:59;20.45;78.20
70421;SHT31;57848;51.938;15.520;2023-09-18T08:03:27;20.53;78.16
70421;SHT31;57848;51.938;15.520;2023-09-18T08:05:53;20.47;78.11
70421;SHT31;57848;51.938;15.520;2023-09-18T08:08:20;20.59;77.52
70421;SHT31;57848;51.938;15.520;2023-09-18T08:10:49;20.53;77.67
70421;SHT31;57848;51.938;15.520;2023-09-18T08:13:14;20.56;78.08
70421;SHT31;57848;51.938;15.520;2023-09-18T08:15:40;20.56;78.28
70421;SHT31;57848;51.938;15.520;2023-09-18T08:18:05;20.64;78.31
70421;SHT31;57848;51.938;15.520;2023-09-18T08:20:30;20.73;78.67
70421;SHT31;57848;51.938;15.520;2023-09-18T08:22:58;20.90;78.09
70421;SHT31;57848;51.938;15.520;2023-09-18T08:25:26;20.91;78.32
70421;SHT31;57848;51.938;15.520;2023-09-18T08:27:51;21.01;78.16
70421;SHT31;57848;51.938;15.520;2023-09-18T08:30:17;21.14;77.34
70421;SHT31;57848;51.938;15.520;2023-09-18T08:32:46;21.20;77.36
70421;SHT31;57848;51.938;15.520;2023-09-18T08:35:11;21.27;75.75
70421;SHT31;57848;51.938;15.520;2023-09-18T08:37:37;21.35;76.19
70421;SHT31;57848;51.938;15.520;2023-09-18T08:40:02;21.42;75.38
70421;SHT31;57848;51.938;15.520;2023-09-18T08:42:35;21.38;76.24
70421;SHT31;57848;51.938;15.520;2023-09-18T08:45:01;21.52;76.67
70421;SHT31;57848;51.938;15.520;2023-09-18T08:47:27;21.63;76.30
70421;SHT31;57848;51.938;15.520;2023-09-18T08:49:54;21.67;76.26
70421;SHT31;57848;51.938;15.520;2023-09-18T08:52:21;21.75;76.54
70421;SHT31;57848;51.938;15.520;2023-09-18T08:54:47;21.72;75.43
70421;SHT31;57848;51.938;15.520;2023-09-18T08:57:13;21.82;75.58
70421;SHT31;57848;51.938;15.520;2023-09-18T08:59:39;21.92;75.58
70421;SHT31;57848;51.938;15.520;2023-09-18T09:02:04;21.90;75.57
70421;SHT31;57848;51.938;15.520;2023-09-18T09:04:30;22.00;74.16
70421;SHT31;57848;51.938;15.520;2023-09-18T09:06:55;22.04;74.28
70421;SHT31;57848;51.938;15.520;2023-09-18T09:09:25;22.04;74.06
70421;SHT31;57848;51.938;15.520;2023-09-18T09:11:51;22.17;73.48
70421;SHT31;57848;51.938;15.520;2023-09-18T09:14:17;22.25;73.50
70421;SHT31;57848;51.938;15.520;2023-09-18T09:16:48;22.27;73.58
70421;SHT31;57848;51.938;15.520;2023-09-18T09:19:17;22.41;74.00
70421;SHT31;57848;51.938;15.520;2023-09-18T09:21:43;22.54;73.56
70421;SHT31;57848;51.938;15.520;2023-09-18T09:24:10;22.60;73.75
70421;SHT31;57848;51.938;15.520;2023-09-18T09:26:40;22.76;73.29
70421;SHT31;57848;51.938;15.520;2023-09-18T09:29:15;22.91;72.61
70421;SHT31;57848;51.938;15.520;2023-09-18T09:31:43;23.12;72.74
70421;SHT31;57848;51.938;15.520;2023-09-18T09:34:08;23.19;72.40
70421;SHT31;57848;51.938;15.520;2023-09-18T09:36:34;23.30;71.82
70421;SHT31;57848;51.938;15.520;2023-09-18T09:38:59;23.53;71.34
70421;SHT31;57848;51.938;15.520;2023-09-18T09:41:25;23.88;69.61
70421;SHT31;57848;51.938;15.520;2023-09-18T09:43:53;24.91;67.70
70421;SHT31;57848;51.938;15.520;2023-09-18T09:46:21;25.64;64.87
70421;SHT31;57848;51.938;15.520;2023-09-18T09:49:05;26.74;62.69
70421;SHT31;57848;51.938;15.520;2023-09-18T09:51:31;27.24;60.85
70421;SHT31;57848;51.938;15.520;2023-09-18T09:53:57;27.53;58.80
70421;SHT31;57848;51.938;15.520;2023-09-18T09:59:11;29.34;55.47
70421;SHT31;57848;51.938;15.520;2023-09-18T10:01:37;29.07;54.60
70421;SHT31;57848;51.938;15.520;2023-09-18T10:04:12;29.16;55.14
70421;SHT31;57848;51.938;15.520;2023-09-18T10:06:40;29.75;53.85
70421;SHT31;57848;51.938;15.520;2023-09-18T10:09:07;30.19;52.73
70421;SHT31;57848;51.938;15.520;2023-09-18T10:11:39;29.81;53.61
70421;SHT31;57848;51.938;15.520;2023-09-18T10:14:15;31.04;51.84
70421;SHT31;57848;51.938;15.520;2023-09-18T10:16:45;31.01;51.03
70421;SHT31;57848;51.938;15.520;2023-09-18T10:22:24;31.89;49.27
70421;SHT31;57848;51.938;15.520;2023-09-18T10:24:50;32.09;48.58
70421;SHT31;57848;51.938;15.520;2023-09-18T10:27:16;32.20;48.18
70421;SHT31;57848;51.938;15.520;2023-09-18T10:29:43;32.88;47.33
70421;SHT31;57848;51.938;15.520;2023-09-18T10:32:13;32.71;47.34
70421;SHT31;57848;51.938;15.520;2023-09-18T10:34:40;32.17;48.09
70421;SHT31;57848;51.938;15.520;2023-09-18T10:37:07;33.25;46.95
70421;SHT31;57848;51.938;15.520;2023-09-18T10:39:36;33.21;46.17
70421;SHT31;57848;51.938;15.520;2023-09-18T10:42:02;33.73;46.29
70421;SHT31;57848;51.938;15.520;2023-09-18T10:44:29;33.33;45.83
70421;SHT31;57848;51.938;15.520;2023-09-18T10:46:57;33.09;46.35
70421;SHT31;57848;51.938;15.520;2023-09-18T10:49:24;33.26;45.94
70421;SHT31;57848;51.938;15.520;2023-09-18T10:51:53;32.98;46.04
70421;SHT31;57848;51.938;15.520;2023-09-18T10:54:26;33.72;45.61
70421;SHT31;57848;51.938;15.520;2023-09-18T10:56:52;33.77;43.45
70421;SHT31;57848;51.938;15.520;2023-09-18T10:59:18;34.51;43.29
70421;SHT31;57848;51.938;15.520;2023-09-18T11:01:44;34.86;42.92
70421;SHT31;57848;51.938;15.520;2023-09-18T11:04:10;35.19;42.47
70421;SHT31;57848;51.938;15.520;2023-09-18T11:09:27;35.63;42.12
70421;SHT31;57848;51.938;15.520;2023-09-18T11:11:54;35.64;40.71
70421;SHT31;57848;51.938;15.520;2023-09-18T11:14:23;36.08;41.00
70421;SHT31;57848;51.938;15.520;2023-09-18T11:20:09;36.80;39.05
70421;SHT31;57848;51.938;15.520;2023-09-18T11:22:45;37.48;38.21
70421;SHT31;57848;51.938;15.520;2023-09-18T11:28:00;36.75;37.91
70421;SHT31;57848;51.938;15.520;2023-09-18T11:30:27;35.95;38.39
70421;SHT31;57848;51.938;15.520;2023-09-18T11:32:53;35.39;39.43
70421;SHT31;57848;51.938;15.520;2023-09-18T11:35:19;33.67;41.59
70421;SHT31;57848;51.938;15.520;2023-09-18T11:37:45;33.63;42.64
70421;SHT31;57848;51.938;15.520;2023-09-18T11:40:33;34.38;41.90
70421;SHT31;57848;51.938;15.520;2023-09-18T11:43:23;34.59;40.30
70421;SHT31;57848;51.938;15.520;2023-09-18T11:45:56;34.92;40.29
70421;SHT31;57848;51.938;15.520;2023-09-18T11:48:26;34.93;41.16
70421;SHT31;57848;51.938;15.520;2023-09-18T11:50:56;36.25;40.23
70421;SHT31;57848;51.938;15.520;2023-09-18T11:53:23;37.27;38.08
70421;SHT31;57848;51.938;15.520;2023-09-18T11:55:48;37.81;37.05
70421;SHT31;57848;51.938;15.520;2023-09-18T11:58:14;36.93;37.93
70421;SHT31;57848;51.938;15.520;2023-09-18T12:00:40;36.90;38.06
70421;SHT31;57848;51.938;15.520;2023-09-18T12:03:19;35.65;40.10
70421;SHT31;57848;51.938;15.520;2023-09-18T12:05:58;35.20;40.88
70421;SHT31;57848;51.938;15.520;2023-09-18T12:08:25;35.07;41.29
70421;SHT31;57848;51.938;15.520;2023-09-18T12:10:53;34.83;41.67
70421;SHT31;57848;51.938;15.520;2023-09-18T12:13:18;34.17;43.23
70421;SHT31;57848;51.938;15.520;2023-09-18T12:15:44;33.49;44.93
70421;SHT31;57848;51.938;15.520;2023-09-18T12:18:10;32.91;46.22
70421;SHT31;57848;51.938;15.520;2023-09-18T12:20:47;32.23;47.20
70421;SHT31;57848;51.938;15.520;2023-09-18T12:23:13;32.13;47.30
70421;SHT31;57848;51.938;15.520;2023-09-18T12:25:39;31.48;48.41
70421;SHT31;57848;51.938;15.520;2023-09-18T12:28:08;31.32;48.98
70421;SHT31;57848;51.938;15.520;2023-09-18T12:30:33;31.15;48.78
70421;SHT31;57848;51.938;15.520;2023-09-18T12:32:59;30.86;47.94
70421;SHT31;57848;51.938;15.520;2023-09-18T12:35:29;30.80;48.69
70421;SHT31;57848;51.938;15.520;2023-09-18T12:37:59;30.70;46.77
70421;SHT31;57848;51.938;15.520;2023-09-18T12:40:30;30.42;47.30
70421;SHT31;57848;51.938;15.520;2023-09-18T12:42:58;30.56;47.51
70421;SHT31;57848;51.938;15.520;2023-09-18T12:45:25;30.67;47.73
70421;SHT31;57848;51.938;15.520;2023-09-18T12:47:51;30.55;47.16
70421;SHT31;57848;51.938;15.520;2023-09-18T12:50:17;30.49;46.59
70421;SHT31;57848;51.938;15.520;2023-09-18T12:52:43;30.28;47.52
70421;SHT31;57848;51.938;15.520;2023-09-18T12:55:09;30.15;48.42
70421;SHT31;57848;51.938;15.520;2023-09-18T12:57:45;29.85;47.68
70421;SHT31;57848;51.938;15.520;2023-09-18T13:00:11;29.74;46.73
70421;SHT31;57848;51.938;15.520;2023-09-18T13:02:38;29.57;45.83
70421;SHT31;57848;51.938;15.520;2023-09-18T13:05:04;29.78;45.91
70421;SHT31;57848;51.938;15.520;2023-09-18T13:07:30;29.94;45.98
70421;SHT31;57848;51.938;15.520;2023-09-18T13:10:05;30.15;45.84
70421;SHT31;57848;51.938;15.520;2023-09-18T13:12:52;30.16;45.65
70421;SHT31;57848;51.938;15.520;2023-09-18T13:15:28;30.15;46.15
70421;SHT31;57848;51.938;15.520;2023-09-18T13:17:54;30.05;46.04
70421;SHT31;57848;51.938;15.520;2023-09-18T13:20:25;30.52;45.82
70421;SHT31;57848;51.938;15.520;2023-09-18T13:22:52;30.90;45.00
70421;SHT31;57848;51.938;15.520;2023-09-18T13:25:25;31.15;44.81
70421;SHT31;57848;51.938;15.520;2023-09-18T13:27:52;31.01;45.24
70421;SHT31;57848;51.938;15.520;2023-09-18T13:30:18;30.44;46.25
70421;SHT31;57848;51.938;15.520;2023-09-18T13:32:46;30.05;46.52
70421;SHT31;57848;51.938;15.520;2023-09-18T13:35:14;29.77;47.37
70421;SHT31;57848;51.938;15.520;2023-09-18T13:37:41;29.64;47.50
70421;SHT31;57848;51.938;15.520;2023-09-18T13:40:07;29.64;48.65
70421;SHT31;57848;51.938;15.520;2023-09-18T13:42:34;29.50;47.62
70421;SHT31;57848;51.938;15.520;2023-09-18T13:45:00;29.42;47.39
70421;SHT31;57848;51.938;15.520;2023-09-18T13:47:29;29.38;48.52
70421;SHT31;57848;51.938;15.520;2023-09-18T13:49:54;29.31;47.85
70421;SHT31;57848;51.938;15.520;2023-09-18T13:52:31;29.24;47.97
70421;SHT31;57848;51.938;15.520;2023-09-18T13:54:57;29.23;48.35
70421;SHT31;57848;51.938;15.520;2023-09-18T13:57:22;29.31;49.10
70421;SHT31;57848;51.938;15.520;2023-09-18T13:59:49;29.22;49.05
70421;SHT31;57848;51.938;15.520;2023-09-18T14:02:15;29.22;49.20
70421;SHT31;57848;51.938;15.520;2023-09-18T14:04:41;29.00;48.88
70421;SHT31;57848;51.938;15.520;2023-09-18T14:07:08;28.92;49.40
70421;SHT31;57848;51.938;15.520;2023-09-18T14:09:34;28.91;49.25
70421;SHT31;57848;51.938;15.520;2023-09-18T14:12:00;28.93;48.89
70421;SHT31;57848;51.938;15.520;2023-09-18T14:14:25;28.79;48.85
70421;SHT31;57848;51.938;15.520;2023-09-18T14:16:51;28.95;48.64
70421;SHT31;57848;51.938;15.520;2023-09-18T14:19:16;28.98;49.10
70421;SHT31;57848;51.938;15.520;2023-09-18T14:21:42;28.75;48.77
70421;SHT31;57848;51.938;15.520;2023-09-18T14:24:08;28.71;49.52
70421;SHT31;57848;51.938;15.520;2023-09-18T14:26:34;28.66;48.72
70421;SHT31;57848;51.938;15.520;2023-09-18T14:29:08;28.49;49.69
70421;SHT31;57848;51.938;15.520;2023-09-18T14:31:35;28.49;49.32
70421;SHT31;57848;51.938;15.520;2023-09-18T14:34:01;28.45;49.65
70421;SHT31;57848;51.938;15.520;2023-09-18T14:36:26;28.31;50.52
70421;SHT31;57848;51.938;15.520;2023-09-18T14:38:52;28.35;50.19
70421;SHT31;57848;51.938;15.520;2023-09-18T14:41:17;28.18;50.65
70421;SHT31;57848;51.938;15.520;2023-09-18T14:43:45;28.29;50.46
70421;SHT31;57848;51.938;15.520;2023-09-18T14:46:10;28.13;50.70
70421;SHT31;57848;51.938;15.520;2023-09-18T14:48:35;28.07;51.30
70421;SHT31;57848;51.938;15.520;2023-09-18T14:51:01;28.07;51.15
70421;SHT31;57848;51.938;15.520;2023-09-18T14:53:26;27.90;51.96
70421;SHT31;57848;51.938;15.520;2023-09-18T14:55:52;27.90;52.03
70421;SHT31;57848;51.938;15.520;2023-09-18T14:58:21;27.92;51.73
70421;SHT31;57848;51.938;15.520;2023-09-18T15:00:49;27.70;52.23
70421;SHT31;57848;51.938;15.520;2023-09-18T15:03:14;27.67;52.50
70421;SHT31;57848;51.938;15.520;2023-09-18T15:05:39;27.69;52.30
70421;SHT31;57848;51.938;15.520;2023-09-18T15:08:06;27.66;52.88
70421;SHT31;57848;51.938;15.520;2023-09-18T15:10:32;27.57;52.51
70421;SHT31;57848;51.938;15.520;2023-09-18T15:12:57;27.49;53.40
70421;SHT31;57848;51.938;15.520;2023-09-18T15:15:22;27.39;53.46
70421;SHT31;57848;51.938;15.520;2023-09-18T15:17:49;27.35;53.47
70421;SHT31;57848;51.938;15.520;2023-09-18T15:20:17;27.28;53.79
70421;SHT31;57848;51.938;15.520;2023-09-18T15:22:44;27.16;54.32
70421;SHT31;57848;51.938;15.520;2023-09-18T15:25:09;27.12;55.22
70421;SHT31;57848;51.938;15.520;2023-09-18T15:27:36;27.09;54.66